createdAt,value
2023-01-11T00:00:01.131Z,0.00
2023-01-11T00:10:01.280Z,0.00
2023-01-11T00:20:01.323Z,0.00
2023-01-11T00:30:01.365Z,0.00
2023-01-11T00:40:01.325Z,0.00
2023-01-11T00:50:00.953Z,0.00
2023-01-11T01:00:01.119Z,0.00
2023-01-11T01:10:01.225Z,0.00
2023-01-11T01:20:01.058Z,0.00
2023-01-11T01:30:01.252Z,0.00
2023-01-11T01:40:01.031Z,0.00
2023-01-11T01:50:01.033Z,0.00
2023-01-11T02:00:01.391Z,0.00
2023-01-11T02:10:01.532Z,0.00
2023-01-11T02:20:01.082Z,0.00
2023-01-11T02:30:01.218Z,0.00
2023-01-11T02:40:00.306Z,0.00
2023-01-11T02:50:01.304Z,0.00
2023-01-11T03:00:01.130Z,0.00
2023-01-11T03:10:01.041Z,0.00
2023-01-11T03:20:01.226Z,0.00
2023-01-11T03:30:00.998Z,0.00
2023-01-11T03:40:01.306Z,0.00
2023-01-11T03:50:01.304Z,0.00
2023-01-11T04:00:01.516Z,0.00
2023-01-11T04:10:01.401Z,0.00
2023-01-11T04:20:01.304Z,0.00
2023-01-11T04:30:01.049Z,0.00
2023-01-11T04:40:01.144Z,0.00
2023-01-11T04:50:01.342Z,0.00
2023-01-11T05:00:01.070Z,0.00
2023-01-11T05:10:00.995Z,0.00
2023-01-11T05:20:01.317Z,0.00
2023-01-11T05:30:01.060Z,0.00
2023-01-11T05:40:01.091Z,0.00
2023-01-11T05:50:01.275Z,0.00
2023-01-11T06:00:01.016Z,0.00
2023-01-11T06:10:01.026Z,0.00
2023-01-11T06:20:01.088Z,0.00
2023-01-11T06:30:03.361Z,0.11
2023-01-11T06:40:01.649Z,0.57
2023-01-11T06:50:01.113Z,2.04
2023-01-11T07:00:02.356Z,9.39
2023-01-11T07:10:01.026Z,13.33
2023-01-11T07:20:01.060Z,33.33
2023-01-11T07:30:01.036Z,163.33
2023-01-11T07:40:01.311Z,130.00
2023-01-11T07:50:01.060Z,166.67
2023-01-11T08:00:01.016Z,180.00
2023-01-11T08:10:01.061Z,288.33
2023-01-11T08:30:01.385Z,588.75
2023-01-11T08:40:01.023Z,436.67
2023-01-11T08:50:02.075Z,518.33
2023-01-11T09:00:01.562Z,1396.67
2023-01-11T09:10:01.478Z,633.33
2023-01-11T09:20:01.001Z,673.33
2023-01-11T09:30:01.268Z,595.00
2023-01-11T09:40:01.010Z,621.67
2023-01-11T09:50:01.095Z,528.33
2023-01-11T10:00:01.126Z,660.00
2023-01-11T10:20:02.107Z,1880.42
2023-01-11T10:30:02.104Z,1935.42
2023-01-11T10:40:01.516Z,793.33
2023-01-11T10:50:01.072Z,1879.17
2023-01-11T11:00:08.974Z,731.67
2023-01-11T11:10:01.286Z,1927.08
2023-01-11T11:20:01.082Z,848.33
2023-01-11T11:30:00.960Z,1670.00
2023-01-11T11:40:01.271Z,1038.33
2023-01-11T11:50:01.323Z,763.33
2023-01-11T12:00:01.230Z,780.00
2023-01-11T12:10:01.355Z,973.33
2023-01-11T12:20:01.319Z,1820.83
2023-01-11T12:30:00.958Z,873.33
2023-01-11T12:40:01.130Z,743.33
2023-01-11T12:50:01.097Z,821.67
2023-01-11T13:10:03.475Z,440.83
2023-01-11T13:20:01.338Z,223.33
2023-01-11T13:30:01.554Z,286.67
2023-01-11T13:40:01.455Z,440.83
2023-01-11T13:50:01.320Z,385.42
2023-01-11T14:00:01.426Z,386.25
2023-01-11T14:10:01.343Z,148.33
2023-01-11T14:20:00.984Z,222.50
2023-01-11T14:30:01.049Z,116.67
2023-01-11T14:40:01.561Z,68.33
2023-01-11T14:50:01.368Z,35.00
2023-01-11T15:00:02.775Z,57.92
2023-01-11T15:20:00.990Z,10.98
2023-01-11T15:30:01.811Z,4.64
2023-01-11T15:40:00.980Z,1.13
2023-01-11T15:50:01.395Z,0.34
2023-01-11T16:00:01.072Z,0.11
2023-01-11T16:10:01.441Z,0.11
2023-01-11T16:20:01.511Z,0.00
2023-01-11T16:30:01.587Z,0.11
2023-01-11T16:40:01.426Z,0.00
2023-01-11T17:00:02.949Z,0.00
2023-01-11T17:20:00.998Z,0.00
2023-01-11T17:30:01.421Z,0.00
2023-01-11T17:40:01.169Z,0.34
2023-01-11T17:50:02.118Z,0.23
2023-01-11T18:00:01.282Z,0.00
2023-01-11T18:10:03.426Z,0.00
2023-01-11T18:20:02.170Z,0.00
2023-01-11T18:30:03.893Z,0.00
2023-01-11T18:40:01.474Z,0.00
2023-01-11T18:50:02.633Z,0.00
2023-01-11T19:00:02.276Z,0.00
2023-01-11T19:10:04.050Z,0.00
2023-01-11T19:20:02.068Z,0.00
2023-01-11T19:30:01.488Z,0.00
2023-01-11T19:40:01.462Z,0.00
2023-01-11T19:50:02.011Z,0.00
2023-01-11T20:00:02.380Z,0.00
2023-01-11T20:10:01.067Z,0.00
2023-01-11T20:20:01.292Z,0.00
2023-01-11T20:30:02.508Z,0.00
2023-01-11T20:40:02.040Z,0.00
2023-01-11T20:50:01.069Z,0.00
2023-01-11T21:00:01.091Z,0.00
2023-01-11T21:10:01.073Z,0.00
2023-01-11T21:20:01.474Z,0.00
2023-01-11T21:30:01.045Z,0.00
2023-01-11T21:40:01.462Z,0.00
2023-01-11T21:50:01.355Z,0.00
2023-01-11T22:00:01.454Z,0.00
2023-01-11T22:10:05.233Z,0.00
2023-01-11T22:20:01.267Z,0.00
2023-01-11T22:30:01.021Z,0.00
2023-01-11T22:40:01.772Z,0.00
2023-01-11T22:50:01.902Z,0.00
2023-01-11T23:00:01.044Z,0.00
2023-01-11T23:10:01.090Z,0.00
2023-01-11T23:20:01.042Z,0.00
2023-01-11T23:30:01.014Z,0.00
2023-01-11T23:40:01.090Z,0.00
2023-01-11T23:50:02.079Z,0.00
